createdAt,value
2018-09-03T00:00:07.083Z,100476
2018-09-03T00:01:11.923Z,100455
2018-09-03T00:02:17.092Z,100461
2018-09-03T00:03:21.679Z,100458
2018-09-03T00:04:41.562Z,100449
2018-09-03T00:05:46.578Z,100455
2018-09-03T00:06:51.991Z,100461
2018-09-03T00:07:57.200Z,100447
2018-09-03T00:09:02.119Z,100455
2018-09-03T00:10:07.536Z,100455
2018-09-03T00:11:12.466Z,100455
2018-09-03T00:12:17.394Z,100444
2018-09-03T00:13:22.519Z,100432
2018-09-03T00:14:27.133Z,100438
2018-09-03T00:15:32.257Z,100438
2018-09-03T00:16:37.513Z,100435
2018-09-03T00:17:42.703Z,100423
2018-09-03T00:18:47.258Z,100435
2018-09-03T00:19:52.719Z,100432
2018-09-03T00:20:57.618Z,100429
2018-09-03T00:22:02.565Z,100429
2018-09-03T00:23:08.007Z,100426
2018-09-03T00:24:13.182Z,100435
2018-09-03T00:25:18.582Z,100429
2018-09-03T00:26:23.794Z,100417
2018-09-03T00:27:29.634Z,100429
2018-09-03T00:28:34.813Z,100429
2018-09-03T00:29:39.995Z,100426
2018-09-03T00:30:45.723Z,100432
2018-09-03T00:31:50.686Z,100432
2018-09-03T00:32:55.637Z,100426
2018-09-03T00:34:00.938Z,100420
2018-09-03T00:35:05.542Z,100429
2018-09-03T00:36:10.744Z,100423
2018-09-03T00:37:16.226Z,100414
2018-09-03T00:38:21.106Z,100417
2018-09-03T00:39:41.166Z,100409
2018-09-03T00:40:46.358Z,100417
2018-09-03T00:41:51.507Z,100417
2018-09-03T00:42:57.161Z,100409
2018-09-03T00:44:02.429Z,100417
2018-09-03T00:45:07.924Z,100414
2018-09-03T00:46:13.181Z,100400
2018-09-03T00:47:18.416Z,100409
2018-09-03T00:48:23.596Z,100406
2018-09-03T00:49:29.231Z,100403
2018-09-03T00:50:34.734Z,100400
2018-09-03T00:51:40.271Z,100391
2018-09-03T00:52:45.732Z,100391
2018-09-03T00:53:50.978Z,100397
2018-09-03T00:54:56.494Z,100394
2018-09-03T00:56:01.711Z,100394
2018-09-03T00:57:06.308Z,100388
2018-09-03T00:58:12.064Z,100397
2018-09-03T00:59:17.243Z,100397
2018-09-03T01:00:22.427Z,100391
2018-09-03T01:01:42.472Z,100382
2018-09-03T01:02:47.925Z,100397
2018-09-03T01:03:53.762Z,100391
2018-09-03T01:04:58.920Z,100385
2018-09-03T01:06:04.364Z,100376
2018-09-03T01:07:09.937Z,100388
2018-09-03T01:08:15.372Z,100382
2018-09-03T01:09:19.977Z,100371
2018-09-03T01:10:25.858Z,100376
2018-09-03T01:11:31.030Z,100379
2018-09-03T01:12:36.726Z,100376
2018-09-03T01:13:41.904Z,100376
2018-09-03T01:14:46.802Z,100379
2018-09-03T01:15:52.291Z,100385
2018-09-03T01:16:57.784Z,100376
2018-09-03T01:18:02.660Z,100385
2018-09-03T01:19:08.086Z,100382
2018-09-03T01:20:13.248Z,100394
2018-09-03T01:21:18.177Z,100403
2018-09-03T01:22:23.768Z,100400
2018-09-03T01:23:29.219Z,100400
2018-09-03T01:24:34.486Z,100394
2018-09-03T01:25:39.937Z,100397
2018-09-03T01:26:45.411Z,100397
2018-09-03T01:27:50.259Z,100397
2018-09-03T01:28:55.698Z,100397
2018-09-03T01:30:00.946Z,100391
2018-09-03T01:31:05.804Z,100406
2018-09-03T01:32:11.004Z,100397
2018-09-03T01:33:16.485Z,100388
2018-09-03T01:34:21.777Z,100397
2018-09-03T01:35:26.703Z,100385
2018-09-03T01:36:32.397Z,100385
2018-09-03T01:37:37.843Z,100385
2018-09-03T01:38:43.010Z,100382
2018-09-03T01:39:48.945Z,100385
2018-09-03T01:40:54.119Z,100379
2018-09-03T01:41:59.563Z,100379
2018-09-03T01:43:05.019Z,100373
2018-09-03T01:44:10.217Z,100376
2018-09-03T01:45:15.663Z,100373
2018-09-03T01:46:21.109Z,100379
2018-09-03T01:47:26.271Z,100371
2018-09-03T01:48:31.777Z,100379
2018-09-03T01:49:36.940Z,100373
2018-09-03T01:50:42.383Z,100373
2018-09-03T01:51:48.238Z,100376
2018-09-03T01:52:53.464Z,100382
2018-09-03T01:53:58.908Z,100382
2018-09-03T01:55:04.766Z,100382
2018-09-03T01:56:09.384Z,100397
2018-09-03T01:57:14.250Z,100394
2018-09-03T01:58:19.564Z,100400
2018-09-03T01:59:24.729Z,100406
2018-09-03T02:00:29.660Z,100397
2018-09-03T02:01:34.576Z,100397
2018-09-03T02:02:40.015Z,100400
2018-09-03T02:03:45.744Z,100400
2018-09-03T02:04:50.642Z,100400
2018-09-03T02:05:55.518Z,100403
2018-09-03T02:07:00.956Z,100400
2018-09-03T02:08:05.550Z,100409
2018-09-03T02:09:10.534Z,100411
2018-09-03T02:10:16.154Z,100409
2018-09-03T02:11:21.022Z,100406
2018-09-03T02:12:42.080Z,100411
2018-09-03T02:13:47.287Z,100423
2018-09-03T02:14:51.890Z,100414
2018-09-03T02:15:57.399Z,100420
2018-09-03T02:17:02.272Z,100429
2018-09-03T02:18:06.672Z,100420
2018-09-03T02:19:11.938Z,100420
2018-09-03T02:20:17.093Z,100417
2018-09-03T02:21:22.260Z,100417
2018-09-03T02:22:28.324Z,100406
2018-09-03T02:23:33.189Z,100411
2018-09-03T02:24:38.855Z,100409
2018-09-03T02:25:43.729Z,100406
2018-09-03T02:26:48.605Z,100391
2018-09-03T02:27:54.343Z,100385
2018-09-03T02:28:59.250Z,100376
2018-09-03T02:30:04.140Z,100365
2018-09-03T02:31:09.408Z,100365
2018-09-03T02:32:14.647Z,100365
2018-09-03T02:33:19.511Z,100356
2018-09-03T02:34:24.982Z,100356
2018-09-03T02:35:30.208Z,100359
2018-09-03T02:36:35.945Z,100376
2018-09-03T02:37:40.896Z,100382
2018-09-03T02:38:46.089Z,100371
2018-09-03T02:39:51.960Z,100376
2018-09-03T02:40:57.123Z,100382
2018-09-03T02:42:02.283Z,100379
2018-09-03T02:43:08.046Z,100371
2018-09-03T02:44:13.566Z,100368
2018-09-03T02:45:18.732Z,100379
2018-09-03T02:46:24.591Z,100388
2018-09-03T02:47:29.821Z,100379
2018-09-03T02:48:35.409Z,100379
2018-09-03T02:49:40.568Z,100385
2018-09-03T02:50:45.517Z,100376
2018-09-03T02:51:51.106Z,100373
2018-09-03T02:52:56.289Z,100373
2018-09-03T02:54:01.212Z,100368
2018-09-03T02:55:06.460Z,100373
2018-09-03T02:56:11.627Z,100373
2018-09-03T02:57:17.098Z,100376
2018-09-03T02:58:22.563Z,100371
2018-09-03T02:59:27.171Z,100371
2018-09-03T03:00:33.226Z,100365
2018-09-03T03:01:37.856Z,100373
2018-09-03T03:02:43.070Z,100365
2018-09-03T03:03:48.853Z,100353
2018-09-03T03:04:54.091Z,100365
2018-09-03T03:05:59.659Z,100362
2018-09-03T03:07:05.505Z,100359
2018-09-03T03:08:09.840Z,100368
2018-09-03T03:09:15.070Z,100359
2018-09-03T03:10:20.607Z,100365
2018-09-03T03:11:25.757Z,100359
2018-09-03T03:12:31.328Z,100350
2018-09-03T03:13:36.775Z,100359
2018-09-03T03:14:41.936Z,100347
2018-09-03T03:15:47.742Z,100347
2018-09-03T03:16:52.702Z,100347
2018-09-03T03:17:58.149Z,100341
2018-09-03T03:19:03.485Z,100338
2018-09-03T03:20:08.961Z,100331
2018-09-03T03:21:14.397Z,100325
2018-09-03T03:22:20.365Z,100344
2018-09-03T03:23:25.798Z,100341
2018-09-03T03:24:31.561Z,100344
2018-09-03T03:25:35.881Z,100334
2018-09-03T03:26:41.125Z,100334
2018-09-03T03:27:46.769Z,100338
2018-09-03T03:28:52.210Z,100331
2018-09-03T03:29:57.377Z,100344
2018-09-03T03:31:02.803Z,100334
2018-09-03T03:32:08.046Z,100344
2018-09-03T03:33:13.254Z,100338
2018-09-03T03:34:18.685Z,100335
2018-09-03T03:35:23.548Z,100335
2018-09-03T03:36:29.193Z,100334
2018-09-03T03:37:34.666Z,100334
2018-09-03T03:38:39.838Z,100331
2018-09-03T03:39:45.438Z,100319
2018-09-03T03:40:50.634Z,100313
2018-09-03T03:41:56.076Z,100325
2018-09-03T03:43:01.541Z,100325
2018-09-03T03:44:06.699Z,100322
2018-09-03T03:45:11.860Z,100316
2018-09-03T03:46:17.317Z,100304
2018-09-03T03:47:22.538Z,100307
2018-09-03T03:48:28.198Z,100313
2018-09-03T03:49:33.772Z,100313
2018-09-03T03:50:39.259Z,100316
2018-09-03T03:51:44.503Z,100307
2018-09-03T03:52:50.032Z,100307
2018-09-03T03:53:55.469Z,100316
2018-09-03T03:55:00.553Z,100301
2018-09-03T03:56:05.552Z,100313
2018-09-03T03:57:10.756Z,100304
2018-09-03T03:58:16.025Z,100301
2018-09-03T03:59:21.183Z,100296
2018-09-03T04:00:27.346Z,100307
2018-09-03T04:01:32.502Z,100304
2018-09-03T04:02:38.001Z,100304
2018-09-03T04:03:43.745Z,100298
2018-09-03T04:04:49.219Z,100298
2018-09-03T04:05:54.234Z,100295
2018-09-03T04:06:59.962Z,100304
2018-09-03T04:08:05.434Z,100310
2018-09-03T04:09:10.306Z,100298
2018-09-03T04:10:15.992Z,100307
2018-09-03T04:11:21.144Z,100307
2018-09-03T04:12:41.475Z,100312
2018-09-03T04:13:46.679Z,100309
2018-09-03T04:14:51.586Z,100309
2018-09-03T04:15:57.100Z,100306
2018-09-03T04:17:02.007Z,100301
2018-09-03T04:18:06.982Z,100304
2018-09-03T04:19:12.694Z,100301
2018-09-03T04:20:18.180Z,100301
2018-09-03T04:21:23.074Z,100295
2018-09-03T04:22:28.961Z,100298
2018-09-03T04:23:34.496Z,100303
2018-09-03T04:24:40.355Z,100300
2018-09-03T04:25:45.914Z,100289
2018-09-03T04:26:50.833Z,100298
2018-09-03T04:27:55.700Z,100295
2018-09-03T04:29:00.859Z,100292
2018-09-03T04:30:06.017Z,100303
2018-09-03T04:31:11.056Z,100287
2018-09-03T04:32:16.197Z,100295
2018-09-03T04:33:20.814Z,100287
2018-09-03T04:34:26.561Z,100297
2018-09-03T04:35:31.728Z,100284
2018-09-03T04:36:37.276Z,100275
2018-09-03T04:37:42.536Z,100284
2018-09-03T04:38:48.327Z,100275
2018-09-03T04:39:53.941Z,100281
2018-09-03T04:40:58.887Z,100281
2018-09-03T04:42:03.515Z,100269
2018-09-03T04:43:08.522Z,100272
2018-09-03T04:44:13.967Z,100278
2018-09-03T04:45:19.430Z,100275
2018-09-03T04:46:24.309Z,100284
2018-09-03T04:47:28.905Z,100288
2018-09-03T04:48:33.608Z,100278
2018-09-03T04:49:39.106Z,100287
2018-09-03T04:50:44.257Z,100272
2018-09-03T04:51:49.860Z,100275
2018-09-03T04:52:54.755Z,100275
2018-09-03T04:53:59.928Z,100269
2018-09-03T04:55:05.765Z,100260
2018-09-03T04:56:11.144Z,100260
2018-09-03T04:57:15.987Z,100263
2018-09-03T04:58:21.650Z,100263
2018-09-03T04:59:26.527Z,100266
2018-09-03T05:00:31.472Z,100263
2018-09-03T05:01:36.749Z,100266
2018-09-03T05:02:42.322Z,100260
2018-09-03T05:03:47.744Z,100266
2018-09-03T05:04:53.230Z,100260
2018-09-03T05:05:58.752Z,100254
2018-09-03T05:07:04.414Z,100260
2018-09-03T05:08:09.876Z,100260
2018-09-03T05:09:14.494Z,100269
2018-09-03T05:10:20.470Z,100257
2018-09-03T05:11:25.907Z,100272
2018-09-03T05:12:31.052Z,100266
2018-09-03T05:13:36.587Z,100278
2018-09-03T05:14:41.767Z,100269
2018-09-03T05:15:47.462Z,100280
2018-09-03T05:16:52.335Z,100280
2018-09-03T05:17:57.242Z,100278
2018-09-03T05:19:02.075Z,100280
2018-09-03T05:20:07.230Z,100278
2018-09-03T05:21:12.454Z,100278
2018-09-03T05:22:18.021Z,100286
2018-09-03T05:23:23.453Z,100283
2018-09-03T05:24:29.181Z,100275
2018-09-03T05:25:34.618Z,100288
2018-09-03T05:26:40.134Z,100286
2018-09-03T05:27:45.876Z,100283
2018-09-03T05:28:51.335Z,100288
2018-09-03T05:29:56.769Z,100294
2018-09-03T05:31:01.930Z,100288
2018-09-03T05:32:07.391Z,100283
2018-09-03T05:33:12.626Z,100291
2018-09-03T05:34:17.745Z,100283
2018-09-03T05:35:23.255Z,100288
2018-09-03T05:36:29.247Z,100283
2018-09-03T05:37:34.126Z,100288
2018-09-03T05:38:39.654Z,100294
2018-09-03T05:39:45.217Z,100294
2018-09-03T05:40:50.285Z,100297
2018-09-03T05:41:55.785Z,100303
2018-09-03T05:43:01.761Z,100300
2018-09-03T05:44:07.464Z,100303
2018-09-03T05:45:12.850Z,100300
2018-09-03T05:46:18.096Z,100294
2018-09-03T05:47:22.972Z,100297
2018-09-03T05:48:28.288Z,100297
2018-09-03T05:49:33.521Z,100302
2018-09-03T05:50:38.810Z,100302
2018-09-03T05:51:44.651Z,100297
2018-09-03T05:52:49.895Z,100302
2018-09-03T05:53:54.571Z,100297
2018-09-03T05:55:00.103Z,100294
2018-09-03T05:56:05.264Z,100302
2018-09-03T05:57:10.256Z,100305
2018-09-03T05:58:15.948Z,100297
2018-09-03T05:59:20.827Z,100302
2018-09-03T06:00:26.659Z,100299
2018-09-03T06:01:32.099Z,100305
2018-09-03T06:02:37.568Z,100305
2018-09-03T06:03:43.389Z,100308
2018-09-03T06:04:48.747Z,100308
2018-09-03T06:05:54.228Z,100302
2018-09-03T06:06:59.435Z,100299
2018-09-03T06:08:04.598Z,100299
2018-09-03T06:09:09.771Z,100299
2018-09-03T06:10:15.514Z,100305
2018-09-03T06:11:20.676Z,100299
2018-09-03T06:12:26.661Z,100299
2018-09-03T06:13:31.862Z,100308
2018-09-03T06:14:37.312Z,100299
2018-09-03T06:15:42.490Z,100308
2018-09-03T06:16:47.390Z,100305
2018-09-03T06:17:52.735Z,100302
2018-09-03T06:18:59.000Z,100294
2018-09-03T06:20:03.909Z,100296
2018-09-03T06:21:09.356Z,100299
2018-09-03T06:22:14.822Z,100291
2018-09-03T06:23:20.004Z,100294
2018-09-03T06:24:40.528Z,100291
2018-09-03T06:25:45.386Z,100288
2018-09-03T06:26:50.315Z,100286
2018-09-03T06:27:55.634Z,100288
2018-09-03T06:29:00.565Z,100296
2018-09-03T06:30:05.441Z,100291
2018-09-03T06:31:11.377Z,100299
2018-09-03T06:32:17.165Z,100299
2018-09-03T06:33:22.690Z,100288
2018-09-03T06:34:28.483Z,100286
2018-09-03T06:35:33.637Z,100283
2018-09-03T06:36:39.144Z,100288
2018-09-03T06:37:44.335Z,100286
2018-09-03T06:38:49.486Z,100283
2018-09-03T06:39:55.169Z,100294
2018-09-03T06:41:00.172Z,100288
2018-09-03T06:42:05.033Z,100299
2018-09-03T06:43:09.985Z,100299
2018-09-03T06:44:15.150Z,100293
2018-09-03T06:45:20.357Z,100291
2018-09-03T06:46:25.514Z,100291
2018-09-03T06:47:30.682Z,100293
2018-09-03T06:48:36.246Z,100288
2018-09-03T06:49:41.406Z,100293
2018-09-03T06:50:46.850Z,100291
2018-09-03T06:51:52.404Z,100299
2018-09-03T06:52:57.608Z,100288
2018-09-03T06:54:02.526Z,100296
2018-09-03T06:55:07.404Z,100291
2018-09-03T06:56:12.288Z,100291
2018-09-03T06:57:17.729Z,100291
2018-09-03T06:58:23.319Z,100277
2018-09-03T06:59:27.939Z,100283
2018-09-03T07:00:33.516Z,100274
2018-09-03T07:01:38.708Z,100271
2018-09-03T07:02:43.942Z,100277
2018-09-03T07:03:49.072Z,100274
2018-09-03T07:04:53.938Z,100277
2018-09-03T07:05:59.100Z,100274
2018-09-03T07:07:04.551Z,100277
2018-09-03T07:08:10.002Z,100274
2018-09-03T07:09:15.164Z,100263
2018-09-03T07:10:20.339Z,100271
2018-09-03T07:11:25.792Z,100268
2018-09-03T07:12:31.226Z,100271
2018-09-03T07:13:36.666Z,100260
2018-09-03T07:14:41.874Z,100268
2018-09-03T07:15:47.395Z,100262
2018-09-03T07:16:52.333Z,100262
2018-09-03T07:17:57.499Z,100260
2018-09-03T07:19:03.024Z,100257
2018-09-03T07:20:08.494Z,100262
2018-09-03T07:21:13.965Z,100268
2018-09-03T07:22:18.830Z,100265
2018-09-03T07:23:24.015Z,100271
2018-09-03T07:24:29.347Z,100262
2018-09-03T07:25:34.524Z,100265
2018-09-03T07:26:39.399Z,100268
2018-09-03T07:27:44.867Z,100280
2018-09-03T07:28:50.162Z,100268
2018-09-03T07:29:55.550Z,100268
2018-09-03T07:31:01.375Z,100268
2018-09-03T07:32:05.969Z,100274
2018-09-03T07:33:10.861Z,100271
2018-09-03T07:34:16.024Z,100268
2018-09-03T07:35:21.307Z,100265
2018-09-03T07:36:41.672Z,100271
2018-09-03T07:37:47.026Z,100268
2018-09-03T07:38:51.369Z,100265
2018-09-03T07:39:56.961Z,100268
2018-09-03T07:41:02.430Z,100271
2018-09-03T07:42:07.633Z,100262
2018-09-03T07:43:13.295Z,100268
2018-09-03T07:44:18.658Z,100254
2018-09-03T07:45:24.086Z,100260
2018-09-03T07:46:44.491Z,100245
2018-09-03T07:47:50.017Z,100245
2018-09-03T07:48:55.148Z,100257
2018-09-03T07:50:00.611Z,100231
2018-09-03T07:51:05.488Z,100231
2018-09-03T07:52:10.928Z,100231
2018-09-03T07:53:16.099Z,100233
2018-09-03T07:54:21.557Z,100239
2018-09-03T07:55:41.649Z,100239
2018-09-03T07:56:46.851Z,100231
2018-09-03T07:57:51.899Z,100233
2018-09-03T07:58:57.400Z,100236
2018-09-03T08:00:02.570Z,100233
2018-09-03T08:01:07.465Z,100239
2018-09-03T08:02:13.058Z,100242
2018-09-03T08:03:18.005Z,100251
2018-09-03T08:04:23.518Z,100233
2018-09-03T08:05:28.125Z,100245
2018-09-03T08:06:34.041Z,100239
2018-09-03T08:07:39.208Z,100245
2018-09-03T08:08:44.361Z,100248
2018-09-03T08:09:49.780Z,100242
2018-09-03T08:10:55.319Z,100248
2018-09-03T08:12:00.475Z,100245
2018-09-03T08:13:06.167Z,100239
2018-09-03T08:14:11.342Z,100248
2018-09-03T08:15:16.795Z,100242
2018-09-03T08:16:22.308Z,100236
2018-09-03T08:17:27.199Z,100236
2018-09-03T08:18:32.770Z,100239
2018-09-03T08:19:37.973Z,100236
2018-09-03T08:20:42.902Z,100233
2018-09-03T08:21:48.591Z,100239
2018-09-03T08:22:53.458Z,100236
2018-09-03T08:23:58.337Z,100228
2018-09-03T08:25:04.079Z,100239
2018-09-03T08:26:09.758Z,100239
2018-09-03T08:27:14.948Z,100236
2018-09-03T08:28:20.587Z,100236
2018-09-03T08:29:25.846Z,100231
2018-09-03T08:30:31.288Z,100236
2018-09-03T08:31:36.454Z,100231
2018-09-03T08:32:41.343Z,100231
2018-09-03T08:37:29.695Z,100225
2018-09-03T08:38:34.934Z,100225
2018-09-03T08:39:40.492Z,100219
2018-09-03T08:40:45.928Z,100225
2018-09-03T08:41:50.807Z,100239
2018-09-03T08:42:56.527Z,100242
2018-09-03T08:44:02.048Z,100236
2018-09-03T08:45:07.498Z,100231
2018-09-03T08:46:13.189Z,100236
2018-09-03T08:47:17.778Z,100239
2018-09-03T08:48:22.966Z,100233
2018-09-03T08:49:28.521Z,100239
2018-09-03T08:50:33.934Z,100245
2018-09-03T08:51:39.337Z,100257
2018-09-03T08:52:44.259Z,100262
2018-09-03T08:53:49.433Z,100257
2018-09-03T08:54:55.042Z,100260
2018-09-03T08:55:59.919Z,100265
2018-09-03T08:57:05.375Z,100248
2018-09-03T08:58:11.166Z,100248
2018-09-03T08:59:16.351Z,100248
2018-09-03T09:00:21.528Z,100251
2018-09-03T09:01:27.766Z,100254
2018-09-03T09:02:32.400Z,100248
2018-09-03T09:03:38.175Z,100245
2018-09-03T09:04:43.338Z,100245
2018-09-03T09:05:48.636Z,100251
2018-09-03T09:06:53.675Z,100245
2018-09-03T09:07:59.199Z,100239
2018-09-03T09:09:04.381Z,100239
2018-09-03T09:10:09.815Z,100242
2018-09-03T09:11:15.256Z,100245
2018-09-03T09:12:20.691Z,100239
2018-09-03T09:13:25.816Z,100245
2018-09-03T09:14:31.035Z,100242
2018-09-03T09:15:36.160Z,100233
2018-09-03T09:16:41.613Z,100230
2018-09-03T09:17:46.770Z,100230
2018-09-03T09:18:52.478Z,100222
2018-09-03T09:19:57.361Z,100222
2018-09-03T09:21:02.317Z,100231
2018-09-03T09:22:08.006Z,100216
2018-09-03T09:23:12.990Z,100228
2018-09-03T09:24:18.419Z,100219
2018-09-03T09:25:24.247Z,100213
2018-09-03T09:26:28.861Z,100228
2018-09-03T09:27:34.077Z,100207
2018-09-03T09:28:39.516Z,100216
2018-09-03T09:29:44.723Z,100216
2018-09-03T09:30:50.522Z,100222
2018-09-03T09:31:56.047Z,100222
2018-09-03T09:33:00.419Z,100219
2018-09-03T09:34:05.975Z,100222
2018-09-03T09:35:10.560Z,100225
2018-09-03T09:36:16.001Z,100225
2018-09-03T09:37:21.742Z,100219
2018-09-03T09:38:26.626Z,100219
2018-09-03T09:39:32.511Z,100207
2018-09-03T09:40:37.993Z,100216
2018-09-03T09:41:43.458Z,100216
2018-09-03T09:42:49.090Z,100210
2018-09-03T09:43:54.003Z,100216
2018-09-03T09:44:59.240Z,100219
2018-09-03T09:46:04.938Z,100219
2018-09-03T09:47:10.132Z,100216
2018-09-03T09:48:15.566Z,100213
2018-09-03T09:49:20.721Z,100219
2018-09-03T09:50:26.152Z,100213
2018-09-03T09:51:32.074Z,100228
2018-09-03T09:52:37.548Z,100219
2018-09-03T09:53:42.709Z,100230
2018-09-03T09:54:48.413Z,100219
2018-09-03T09:55:53.639Z,100216
2018-09-03T09:56:58.800Z,100222
2018-09-03T09:58:04.259Z,100228
2018-09-03T09:59:09.411Z,100228
2018-09-03T10:00:14.020Z,100225
2018-09-03T10:01:18.896Z,100230
2018-09-03T10:02:24.448Z,100225
2018-09-03T10:03:29.921Z,100216
2018-09-03T10:04:34.884Z,100219
2018-09-03T10:05:40.045Z,100222
2018-09-03T10:06:45.844Z,100228
2018-09-03T10:07:51.016Z,100225
2018-09-03T10:08:55.887Z,100225
2018-09-03T10:10:01.308Z,100228
2018-09-03T10:11:06.471Z,100222
2018-09-03T10:12:11.072Z,100207
2018-09-03T10:13:16.576Z,100207
2018-09-03T10:14:21.769Z,100216
2018-09-03T10:15:41.296Z,100210
2018-09-03T10:16:45.875Z,100204
2018-09-03T10:17:51.192Z,100204
2018-09-03T10:18:56.332Z,100207
2018-09-03T10:20:01.802Z,100213
2018-09-03T10:21:06.677Z,100213
2018-09-03T10:22:12.082Z,100207
2018-09-03T10:23:17.239Z,100207
2018-09-03T10:24:22.674Z,100210
2018-09-03T10:25:28.156Z,100213
2018-09-03T10:26:32.741Z,100207
2018-09-03T10:27:37.936Z,100207
2018-09-03T10:28:43.097Z,100216
2018-09-03T10:29:48.265Z,100207
2018-09-03T10:30:53.828Z,100219
2018-09-03T10:31:59.147Z,100213
2018-09-03T10:33:03.902Z,100222
2018-09-03T10:34:09.228Z,100219
2018-09-03T10:35:14.665Z,100210
2018-09-03T10:36:19.871Z,100213
2018-09-03T10:37:25.481Z,100207
2018-09-03T10:38:30.925Z,100216
2018-09-03T10:39:36.071Z,100213
2018-09-03T10:40:41.270Z,100225
2018-09-03T10:41:46.435Z,100207
2018-09-03T10:42:51.581Z,100210
2018-09-03T10:43:56.504Z,100207
2018-09-03T10:45:01.404Z,100210
2018-09-03T10:46:06.461Z,100201
2018-09-03T10:47:12.184Z,100216
2018-09-03T10:48:17.912Z,100204
2018-09-03T10:49:23.616Z,100204
2018-09-03T10:50:29.063Z,100207
2018-09-03T10:51:34.464Z,100201
2018-09-03T10:52:39.624Z,100204
2018-09-03T10:53:45.240Z,100207
2018-09-03T10:54:50.928Z,100213
2018-09-03T10:55:55.287Z,100204
2018-09-03T10:57:00.748Z,100207
2018-09-03T10:58:06.184Z,100210
2018-09-03T10:59:11.050Z,100199
2018-09-03T11:00:16.517Z,100204
2018-09-03T11:01:22.056Z,100213
2018-09-03T11:02:26.994Z,100199
2018-09-03T11:03:32.183Z,100201
2018-09-03T11:04:37.338Z,100196
2018-09-03T11:05:42.490Z,100190
2018-09-03T11:06:48.103Z,100178
2018-09-03T11:07:53.257Z,100178
2018-09-03T11:08:58.494Z,100184
2018-09-03T11:10:03.935Z,100178
2018-09-03T11:11:09.167Z,100172
2018-09-03T11:12:14.378Z,100172
2018-09-03T11:13:19.829Z,100175
2018-09-03T11:14:25.430Z,100170
2018-09-03T11:15:30.691Z,100170
2018-09-03T11:16:35.833Z,100178
2018-09-03T11:17:40.698Z,100175
2018-09-03T11:18:46.377Z,100172
2018-09-03T11:19:51.656Z,100172
2018-09-03T11:20:56.499Z,100172
2018-09-03T11:22:02.200Z,100175
2018-09-03T11:23:07.129Z,100172
2018-09-03T11:24:12.607Z,100167
2018-09-03T11:25:18.487Z,100161
2018-09-03T11:26:23.638Z,100158
2018-09-03T11:27:29.396Z,100167
2018-09-03T11:28:34.367Z,100158
2018-09-03T11:29:39.589Z,100164
2018-09-03T11:30:45.211Z,100155
2018-09-03T11:31:50.170Z,100158
2018-09-03T11:32:55.324Z,100158
2018-09-03T11:34:01.096Z,100161
2018-09-03T11:35:06.510Z,100161
2018-09-03T11:36:12.030Z,100161
2018-09-03T11:37:17.648Z,100152
2018-09-03T11:38:22.794Z,100158
2018-09-03T11:39:28.143Z,100152
2018-09-03T11:40:33.008Z,100155
2018-09-03T11:41:37.687Z,100155
2018-09-03T11:42:43.542Z,100147
2018-09-03T11:43:48.657Z,100144
2018-09-03T11:44:53.260Z,100149
2018-09-03T11:45:58.790Z,100136
2018-09-03T11:47:04.057Z,100149
2018-09-03T11:48:08.997Z,100155
2018-09-03T11:49:13.893Z,100136
2018-09-03T11:50:19.337Z,100142
2018-09-03T11:51:24.243Z,100142
2018-09-03T11:52:44.576Z,100147
2018-09-03T11:53:49.473Z,100161
2018-09-03T11:54:55.035Z,100147
2018-09-03T11:56:00.170Z,100158
2018-09-03T11:57:05.694Z,100149
2018-09-03T11:58:11.179Z,100142
2018-09-03T11:59:16.047Z,100164
2018-09-03T12:00:21.313Z,100155
2018-09-03T12:01:42.246Z,100164
2018-09-03T12:02:47.476Z,100155
2018-09-03T12:03:53.389Z,100161
2018-09-03T12:04:58.532Z,100164
2018-09-03T12:06:03.963Z,100172
2018-09-03T12:07:09.148Z,100155
2018-09-03T12:08:14.591Z,100164
2018-09-03T12:09:19.463Z,100167
2018-09-03T12:10:25.040Z,100152
2018-09-03T12:11:30.510Z,100149
2018-09-03T12:12:35.912Z,100167
2018-09-03T12:13:41.102Z,100172
2018-09-03T12:14:46.733Z,100158
2018-09-03T12:15:51.846Z,100158
2018-09-03T12:16:57.314Z,100158
2018-09-03T12:18:02.190Z,100152
2018-09-03T12:19:07.590Z,100149
2018-09-03T12:20:13.102Z,100149
2018-09-03T12:21:18.045Z,100152
2018-09-03T12:22:23.473Z,100152
2018-09-03T12:23:28.061Z,100155
2018-09-03T12:24:33.673Z,100149
2018-09-03T12:25:39.104Z,100144
2018-09-03T12:26:44.255Z,100149
2018-09-03T12:27:50.020Z,100144
2018-09-03T12:28:55.569Z,100142
2018-09-03T12:30:00.714Z,100149
2018-09-03T12:31:05.501Z,100139
2018-09-03T12:32:11.263Z,100139
2018-09-03T12:33:15.843Z,100142
2018-09-03T12:34:20.502Z,100142
2018-09-03T12:35:26.004Z,100142
2018-09-03T12:36:31.831Z,100145
2018-09-03T12:37:37.302Z,100152
2018-09-03T12:38:42.304Z,100139
2018-09-03T12:39:47.797Z,100136
2018-09-03T12:40:53.293Z,100149
2018-09-03T12:41:57.930Z,100152
2018-09-03T12:43:03.492Z,100147
2018-09-03T12:44:09.007Z,100139
2018-09-03T12:45:14.506Z,100145
2018-09-03T12:46:19.937Z,100145
2018-09-03T12:47:25.659Z,100145
2018-09-03T12:48:31.209Z,100139
2018-09-03T12:49:36.638Z,100149
2018-09-03T12:50:42.069Z,100147
2018-09-03T12:51:47.363Z,100136
2018-09-03T12:52:52.876Z,100130
2018-09-03T12:53:57.769Z,100139
2018-09-03T12:55:03.161Z,100136
2018-09-03T12:56:08.033Z,100136
2018-09-03T12:57:13.249Z,100130
2018-09-03T12:58:18.672Z,100142
2018-09-03T12:59:23.821Z,100130
2018-09-03T13:00:29.425Z,100127
2018-09-03T13:01:43.421Z,100136
2018-09-03T13:02:48.668Z,100130
2018-09-03T13:03:54.760Z,100139
2018-09-03T13:05:00.291Z,100130
2018-09-03T13:06:05.576Z,100142
2018-09-03T13:07:10.843Z,100133
2018-09-03T13:08:15.420Z,100136
2018-09-03T13:09:20.846Z,100130
2018-09-03T13:10:26.079Z,100136
2018-09-03T13:11:31.555Z,100124
2018-09-03T13:12:36.839Z,100130
2018-09-03T13:13:42.081Z,100133
2018-09-03T13:14:47.601Z,100136
2018-09-03T13:15:53.377Z,100133
2018-09-03T13:16:58.528Z,100130
2018-09-03T13:18:03.685Z,100139
2018-09-03T13:19:08.852Z,100136
2018-09-03T13:20:14.287Z,100139
2018-09-03T13:21:19.761Z,100142
2018-09-03T13:22:25.445Z,100142
2018-09-03T13:23:30.385Z,100136
2018-09-03T13:24:35.930Z,100127
2018-09-03T13:25:41.609Z,100127
2018-09-03T13:26:46.479Z,100127
2018-09-03T13:27:52.297Z,100133
2018-09-03T13:28:56.592Z,100133
2018-09-03T13:30:01.522Z,100130
2018-09-03T13:31:06.484Z,100124
2018-09-03T13:32:11.959Z,100133
2018-09-03T13:33:16.845Z,100124
2018-09-03T13:34:21.949Z,100130
2018-09-03T13:35:27.092Z,100119
2018-09-03T13:36:32.990Z,100119
2018-09-03T13:37:37.306Z,100127
2018-09-03T13:38:42.801Z,100119
2018-09-03T13:39:49.119Z,100116
2018-09-03T13:40:53.417Z,100127